createdAt,value
2019-01-28T00:04:07.785Z,98429.30
2019-01-28T00:06:34.934Z,98427.13
2019-01-28T00:12:44.505Z,98423.90
2019-01-28T00:17:49.759Z,98422.58
2019-01-28T00:26:19.664Z,98429.44
2019-01-28T00:31:48.795Z,98427.69
2019-01-28T00:34:47.810Z,98438.55
2019-01-28T00:43:17.906Z,98442.83
2019-01-28T00:45:45.105Z,98444.45
2019-01-28T00:51:13.867Z,98447.73
2019-01-28T00:53:40.908Z,98446.53
2019-01-28T00:56:08.105Z,98451.58
2019-01-28T00:59:16.016Z,98446.67
2019-01-28T01:04:43.596Z,98451.88
2019-01-28T01:07:11.206Z,98449.95
2019-01-28T01:09:38.363Z,98447.28
2019-01-28T01:12:46.427Z,98454.53
2019-01-28T01:18:34.115Z,98452.71
2019-01-28T01:21:13.685Z,98457.38
2019-01-28T01:23:40.892Z,98451.30
2019-01-28T01:26:08.039Z,98448.09
2019-01-28T01:28:35.221Z,98455.39
2019-01-28T01:37:18.725Z,98460.87
2019-01-28T01:39:45.782Z,98455.52
2019-01-28T01:42:25.443Z,98455.33
2019-01-28T01:45:12.961Z,98458.44
2019-01-28T01:48:20.894Z,98459.40
2019-01-28T01:54:22.020Z,98461.05
2019-01-28T01:57:21.204Z,98461.16
2019-01-28T01:59:48.739Z,98473.56
2019-01-28T02:02:16.221Z,98461.78
2019-01-28T02:05:15.364Z,98454.31
2019-01-28T02:11:16.008Z,98465.74
2019-01-28T02:13:43.190Z,98456.00
2019-01-28T02:19:11.595Z,98456.34
2019-01-28T02:24:39.708Z,98462.64
2019-01-28T02:27:06.799Z,98458.84
2019-01-28T02:29:33.955Z,98459.91
2019-01-28T02:32:01.078Z,98453.91
2019-01-28T02:34:28.228Z,98452.44
2019-01-28T02:36:55.752Z,98448.73
2019-01-28T02:40:03.798Z,98449.58
2019-01-28T02:42:30.860Z,98446.29
2019-01-28T02:44:58.003Z,98456.16
2019-01-28T02:47:25.202Z,98446.66
2019-01-28T02:53:46.562Z,98447.36
2019-01-28T02:56:14.051Z,98441.66
2019-01-28T02:58:53.278Z,98436.14
2019-01-28T03:13:36.316Z,98418.11
2019-01-28T03:16:15.195Z,98418.42
2019-01-28T03:18:42.331Z,98421.67
2019-01-28T03:21:50.253Z,98421.80
2019-01-28T03:31:12.142Z,98406.63
2019-01-28T03:33:39.310Z,98405.84
2019-01-28T03:42:08.932Z,98403.80
2019-01-28T03:44:36.077Z,98395.48
2019-01-28T03:53:05.498Z,98381.52
2019-01-28T03:55:32.550Z,98388.88
2019-01-28T03:57:59.729Z,98382.83
2019-01-28T04:00:26.890Z,98387.30
2019-01-28T04:07:00.438Z,98385.69
2019-01-28T04:15:49.391Z,98391.32
2019-01-28T04:18:16.536Z,98385.25
2019-01-28T04:26:45.690Z,98378.48
2019-01-28T04:29:12.881Z,98372.75
2019-01-28T04:34:53.456Z,98374.39
2019-01-28T04:37:39.999Z,98371.35
2019-01-28T04:40:48.197Z,98374.02
2019-01-28T04:46:55.065Z,98365.67
2019-01-28T04:52:23.247Z,98357.42
2019-01-28T04:54:50.412Z,98353.95
2019-01-28T04:57:17.598Z,98337.10
2019-01-28T04:59:44.773Z,98348.33
2019-01-28T05:02:11.919Z,98340.95
2019-01-28T05:04:39.107Z,98338.63
2019-01-28T05:13:08.513Z,98326.95
2019-01-28T05:15:35.681Z,98325.48
2019-01-28T05:18:14.642Z,98326.97
2019-01-28T05:20:41.704Z,98327.00
2019-01-28T05:23:49.694Z,98325.35
2019-01-28T05:26:16.868Z,98321.75
2019-01-28T05:28:44.032Z,98317.78
2019-01-28T05:31:52.038Z,98319.43
2019-01-28T05:34:19.185Z,98315.02
2019-01-28T05:36:46.395Z,98324.84
2019-01-28T05:39:13.575Z,98315.64
2019-01-28T05:41:40.756Z,98305.97
2019-01-28T05:44:20.213Z,98302.91
2019-01-28T05:46:47.363Z,98297.50
2019-01-28T05:49:14.544Z,98303.73
2019-01-28T05:54:43.480Z,98302.34
2019-01-28T05:57:10.648Z,98286.17
2019-01-28T05:59:37.801Z,98295.23
2019-01-28T06:02:05.338Z,98300.56
2019-01-28T06:04:32.485Z,98293.98
2019-01-28T06:06:59.716Z,98286.67
2019-01-28T06:09:26.886Z,98283.37
2019-01-28T06:11:54.064Z,98288.06
2019-01-28T06:14:21.207Z,98283.48
2019-01-28T06:16:48.440Z,98277.64
2019-01-28T06:19:15.625Z,98279.44
2019-01-28T06:21:42.928Z,98279.20
2019-01-28T06:24:10.045Z,98284.14
2019-01-28T06:26:37.206Z,98269.11
2019-01-28T06:29:04.383Z,98273.71
2019-01-28T06:31:32.238Z,98270.55
2019-01-28T06:33:59.427Z,98276.38
2019-01-28T06:36:26.577Z,98278.50
2019-01-28T06:38:53.931Z,98272.05
2019-01-28T06:41:21.092Z,98278.72
2019-01-28T06:43:48.523Z,98264.61
2019-01-28T06:46:15.689Z,98268.05
2019-01-28T06:48:42.845Z,98267.65
2019-01-28T06:51:10.454Z,98277.38
2019-01-28T06:53:37.601Z,98274.46
2019-01-28T06:56:04.776Z,98283.03
2019-01-28T06:58:31.926Z,98266.09
2019-01-28T07:00:59.151Z,98270.11
2019-01-28T07:03:26.517Z,98285.28
2019-01-28T07:05:53.592Z,98284.73
2019-01-28T07:08:20.778Z,98279.48
2019-01-28T07:10:47.969Z,98275.73
2019-01-28T07:13:15.137Z,98283.42
2019-01-28T07:15:42.339Z,98283.03
2019-01-28T07:18:09.380Z,98284.61
2019-01-28T07:20:36.480Z,98276.73
2019-01-28T07:23:03.959Z,98288.39
2019-01-28T07:25:31.155Z,98282.96
2019-01-28T07:27:58.326Z,98280.70
2019-01-28T07:30:30.594Z,98277.72
2019-01-28T07:32:57.798Z,98286.52
2019-01-28T07:35:25.082Z,98280.83
2019-01-28T07:37:52.270Z,98291.80
2019-01-28T07:40:19.511Z,98285.78
2019-01-28T07:42:46.669Z,98287.42
2019-01-28T07:45:16.888Z,98279.95
2019-01-28T07:47:43.993Z,98288.17
2019-01-28T07:50:11.145Z,98264.52
2019-01-28T07:52:38.391Z,98296.17
2019-01-28T07:55:05.838Z,98295.80
2019-01-28T07:57:32.987Z,98292.02
2019-01-28T08:00:00.920Z,98296.98
2019-01-28T08:02:28.134Z,98297.84
2019-01-28T08:04:55.397Z,98288.69
2019-01-28T08:07:22.806Z,98289.50
2019-01-28T08:09:50.073Z,98293.31
2019-01-28T08:12:17.250Z,98289.69
2019-01-28T08:14:44.762Z,98294.37
2019-01-28T08:17:11.912Z,98295.11
2019-01-28T08:19:39.077Z,98295.30
2019-01-28T08:22:06.346Z,98300.80
2019-01-28T08:24:33.782Z,98299.95
2019-01-28T08:27:00.867Z,98291.09
2019-01-28T08:29:28.092Z,98291.22
2019-01-28T08:31:55.164Z,98294.34
2019-01-28T08:34:22.318Z,98299.73
2019-01-28T08:36:49.602Z,98295.78
2019-01-28T08:39:16.768Z,98297.30
2019-01-28T08:41:43.943Z,98304.02
2019-01-28T08:44:11.130Z,98297.08
2019-01-28T08:46:38.308Z,98299.63
2019-01-28T08:49:05.471Z,98303.08
2019-01-28T08:51:32.709Z,98287.34
2019-01-28T08:53:59.879Z,98305.52
2019-01-28T08:56:27.324Z,98307.78
2019-01-28T08:58:54.517Z,98314.16
2019-01-28T09:01:21.720Z,98314.78
2019-01-28T09:03:48.929Z,98303.45
2019-01-28T09:06:16.389Z,98310.45
2019-01-28T09:08:43.903Z,98308.03
2019-01-28T09:11:11.105Z,98309.27
2019-01-28T09:13:38.216Z,98312.59
2019-01-28T09:16:05.436Z,98317.34
2019-01-28T09:18:32.687Z,98320.91
2019-01-28T09:21:00.170Z,98315.17
2019-01-28T09:23:27.364Z,98323.48
2019-01-28T09:25:54.508Z,98313.09
2019-01-28T09:28:21.724Z,98330.72
2019-01-28T09:30:49.041Z,98320.63
2019-01-28T09:33:16.633Z,98330.77
2019-01-28T09:35:43.733Z,98324.78
2019-01-28T09:38:10.928Z,98323.66
2019-01-28T09:40:38.296Z,98326.52
2019-01-28T09:43:06.092Z,98328.69
2019-01-28T09:45:35.617Z,98327.98
2019-01-28T09:48:03.301Z,98328.07
2019-01-28T09:50:30.424Z,98329.03
2019-01-28T09:52:58.337Z,98340.61
2019-01-28T09:55:25.672Z,98336.98
2019-01-28T09:57:52.950Z,98345.52
2019-01-28T10:00:23.713Z,98353.36
2019-01-28T10:02:51.197Z,98353.42
2019-01-28T10:05:18.467Z,98356.65
2019-01-28T10:07:45.686Z,98345.48
2019-01-28T10:10:14.396Z,98347.50
2019-01-28T10:12:41.773Z,98352.70
2019-01-28T10:15:10.795Z,98358.29
2019-01-28T10:17:37.859Z,98352.12
2019-01-28T10:20:07.779Z,98353.23
2019-01-28T10:22:34.999Z,98356.13
2019-01-28T10:25:02.139Z,98356.58
2019-01-28T10:27:29.331Z,98352.83
2019-01-28T10:29:56.489Z,98356.33
2019-01-28T10:32:23.595Z,98364.49
2019-01-28T10:34:51.729Z,98377.19
2019-01-28T10:37:18.738Z,98380.88
2019-01-28T10:39:45.937Z,98380.44
2019-01-28T10:42:13.135Z,98374.00
2019-01-28T10:44:40.286Z,98375.38
2019-01-28T10:47:07.767Z,98383.72
2019-01-28T10:49:34.995Z,98386.52
2019-01-28T10:52:02.216Z,98384.92
2019-01-28T10:54:37.453Z,98393.14
2019-01-28T10:57:05.184Z,98378.49
2019-01-28T10:59:32.369Z,98389.12
2019-01-28T11:01:59.578Z,98388.71
2019-01-28T11:04:27.100Z,98384.59
2019-01-28T11:06:56.162Z,98383.63
2019-01-28T11:09:23.336Z,98390.98
2019-01-28T11:11:50.872Z,98382.95
2019-01-28T11:14:18.400Z,98387.39
2019-01-28T11:16:45.689Z,98383.82
2019-01-28T11:19:12.839Z,98385.52
2019-01-28T11:21:40.089Z,98389.70
2019-01-28T11:24:07.117Z,98391.23
2019-01-28T11:26:34.446Z,98383.34
2019-01-28T11:29:01.671Z,98377.87
2019-01-28T11:31:28.901Z,98369.91
2019-01-28T11:33:56.183Z,98383.08
2019-01-28T11:36:23.419Z,98378.69
2019-01-28T11:38:50.633Z,98382.52
2019-01-28T11:41:17.810Z,98391.45
2019-01-28T11:43:45.264Z,98391.03
2019-01-28T11:46:12.512Z,98396.47
2019-01-28T11:48:39.828Z,98391.05
2019-01-28T11:51:07.297Z,98391.53
2019-01-28T11:53:34.516Z,98396.55
2019-01-28T11:56:01.700Z,98390.45
2019-01-28T11:58:28.900Z,98396.20
2019-01-28T12:01:10.997Z,98391.31
2019-01-28T12:03:38.109Z,98394.09
2019-01-28T12:06:05.315Z,98399.39
2019-01-28T12:08:32.981Z,98403.98
2019-01-28T12:11:00.099Z,98405.75
2019-01-28T12:13:27.286Z,98415.09
2019-01-28T12:15:54.516Z,98415.56
2019-01-28T12:18:21.691Z,98420.73
2019-01-28T12:20:53.618Z,98426.34
2019-01-28T12:23:18.060Z,98427.98
2019-01-28T12:25:45.396Z,98432.95
2019-01-28T12:28:12.573Z,98426.66
2019-01-28T12:30:39.934Z,98429.06
2019-01-28T12:33:07.020Z,98443.88
2019-01-28T12:35:34.124Z,98437.70
2019-01-28T12:38:01.338Z,98448.16
2019-01-28T12:40:28.818Z,98451.40
2019-01-28T12:42:56.015Z,98454.20
2019-01-28T12:45:23.490Z,98456.33
2019-01-28T12:47:50.600Z,98460.31
2019-01-28T12:50:18.284Z,98464.89
2019-01-28T12:52:45.470Z,98459.88
2019-01-28T12:55:14.512Z,98465.55
2019-01-28T12:57:41.752Z,98468.79
2019-01-28T13:00:11.740Z,98471.06
2019-01-28T13:02:38.918Z,98471.65
2019-01-28T13:05:08.148Z,98481.00
2019-01-28T13:07:35.620Z,98481.97
2019-01-28T13:10:04.813Z,98486.63
2019-01-28T13:12:32.014Z,98484.81
2019-01-28T13:14:59.242Z,98486.23
2019-01-28T13:17:26.433Z,98494.93
2019-01-28T13:19:53.821Z,98498.45
2019-01-28T13:22:21.004Z,98496.58
2019-01-28T13:24:48.199Z,98502.98
2019-01-28T13:27:15.481Z,98502.77
2019-01-28T13:29:42.569Z,98506.69
2019-01-28T13:32:09.723Z,98505.86
2019-01-28T13:34:36.912Z,98508.80
2019-01-28T13:37:04.144Z,98509.52
2019-01-28T13:39:31.328Z,98510.30
2019-01-28T13:41:58.478Z,98520.96
2019-01-28T13:44:26.002Z,98529.41
2019-01-28T13:46:53.192Z,98519.31
2019-01-28T13:49:20.439Z,98535.16
2019-01-28T13:51:47.981Z,98539.63
2019-01-28T13:54:15.376Z,98535.71
2019-01-28T13:56:42.985Z,98543.17
2019-01-28T13:59:16.205Z,98547.14
2019-01-28T14:01:39.430Z,98550.63
2019-01-28T14:04:06.731Z,98550.03
2019-01-28T14:06:33.950Z,98557.05
2019-01-28T14:09:01.105Z,98564.50
2019-01-28T14:11:28.209Z,98569.91
2019-01-28T14:13:55.688Z,98564.55
2019-01-28T14:16:22.765Z,98569.02
2019-01-28T14:18:50.813Z,98568.13
2019-01-28T14:21:18.066Z,98567.17
2019-01-28T14:23:45.295Z,98573.78
2019-01-28T14:26:12.819Z,98578.13
2019-01-28T14:28:40.130Z,98593.22
2019-01-28T14:31:07.328Z,98593.80
2019-01-28T14:33:34.603Z,98598.73
2019-01-28T14:36:01.843Z,98602.98
2019-01-28T14:38:29.007Z,98601.88
2019-01-28T14:40:56.194Z,98608.41
2019-01-28T14:43:23.428Z,98609.56
2019-01-28T14:45:50.521Z,98614.83
2019-01-28T14:48:17.715Z,98622.63
2019-01-28T14:50:44.833Z,98622.02
2019-01-28T14:53:12.135Z,98631.77
2019-01-28T14:55:39.315Z,98635.83
2019-01-28T14:58:08.610Z,98641.07
2019-01-28T15:00:36.867Z,98639.42
2019-01-28T15:03:04.192Z,98645.09
2019-01-28T15:05:31.294Z,98638.08
2019-01-28T15:07:58.850Z,98652.28
2019-01-28T15:10:26.239Z,98658.50
2019-01-28T15:12:53.556Z,98659.43
2019-01-28T15:15:23.363Z,98666.66
2019-01-28T15:17:50.423Z,98675.31
2019-01-28T15:20:25.043Z,98686.81
2019-01-28T15:22:52.242Z,98692.55
2019-01-28T15:25:19.524Z,98693.07
2019-01-28T15:27:46.728Z,98702.98
2019-01-28T15:30:22.126Z,98710.16
2019-01-28T15:32:49.489Z,98707.77
2019-01-28T15:35:16.848Z,98712.99
2019-01-28T15:37:44.400Z,98718.03
2019-01-28T15:40:15.224Z,98715.55
2019-01-28T15:42:42.391Z,98733.36
2019-01-28T15:45:13.246Z,98732.67
2019-01-28T15:47:40.326Z,98749.67
2019-01-28T15:50:10.748Z,98748.07
2019-01-28T15:52:37.581Z,98736.05
2019-01-28T15:55:07.182Z,98757.20
2019-01-28T15:57:34.389Z,98755.62
2019-01-28T16:00:01.895Z,98760.77
2019-01-28T16:02:29.354Z,98766.24
2019-01-28T16:04:56.556Z,98776.33
2019-01-28T16:07:23.754Z,98769.25
2019-01-28T16:09:51.256Z,98772.75
2019-01-28T16:12:18.442Z,98770.55
2019-01-28T16:14:45.908Z,98796.52
2019-01-28T16:17:13.150Z,98796.91
2019-01-28T16:19:40.341Z,98785.73
2019-01-28T16:22:07.825Z,98800.94
2019-01-28T16:24:35.379Z,98810.41
2019-01-28T16:27:02.615Z,98816.98
2019-01-28T16:29:29.765Z,98824.27
2019-01-28T16:31:56.857Z,98828.41
2019-01-28T16:34:24.011Z,98835.92
2019-01-28T16:36:51.514Z,98843.52
2019-01-28T16:39:18.710Z,98839.80
2019-01-28T16:41:45.897Z,98849.63
2019-01-28T16:44:13.150Z,98857.72
2019-01-28T16:46:40.360Z,98864.16
2019-01-28T16:49:07.562Z,98856.68
2019-01-28T16:51:35.053Z,98873.61
2019-01-28T16:54:02.264Z,98876.67
2019-01-28T16:56:29.471Z,98885.38
2019-01-28T16:58:56.709Z,98884.56
2019-01-28T17:01:23.900Z,98889.66
2019-01-28T17:03:51.265Z,98896.67
2019-01-28T17:06:18.454Z,98896.90
2019-01-28T17:08:45.572Z,98905.86
2019-01-28T17:11:13.165Z,98905.08
2019-01-28T17:13:40.374Z,98914.55
2019-01-28T17:16:07.638Z,98922.75
2019-01-28T17:18:34.975Z,98918.70
2019-01-28T17:21:02.290Z,98927.84
2019-01-28T17:23:29.420Z,98926.78
2019-01-28T17:25:57.221Z,98944.36
2019-01-28T17:28:24.569Z,98946.82
2019-01-28T17:30:51.737Z,98951.80
2019-01-28T17:33:18.821Z,98960.91
2019-01-28T17:35:45.998Z,98969.70
2019-01-28T17:38:13.250Z,98972.91
2019-01-28T17:40:41.973Z,98984.30
2019-01-28T17:43:09.964Z,98990.21
2019-01-28T17:45:37.260Z,99001.71
2019-01-28T17:48:05.503Z,98998.17
2019-01-28T17:50:33.098Z,99001.36
2019-01-28T17:53:00.307Z,99010.97
2019-01-28T17:55:27.404Z,99014.87
2019-01-28T17:57:54.595Z,99021.62
2019-01-28T18:00:35.141Z,99030.41
2019-01-28T18:03:02.747Z,99033.14
2019-01-28T18:05:29.865Z,99040.11
2019-01-28T18:07:57.062Z,99039.40
2019-01-28T18:10:24.244Z,99043.08
2019-01-28T18:12:51.458Z,99060.02
2019-01-28T18:15:18.701Z,99061.21
2019-01-28T18:17:45.756Z,99072.70
2019-01-28T18:20:14.150Z,99072.00
2019-01-28T18:22:42.785Z,99076.97
2019-01-28T18:25:11.135Z,99084.22
2019-01-28T18:27:38.352Z,99082.45
2019-01-28T18:30:08.682Z,99096.65
2019-01-28T18:32:35.977Z,99096.90
2019-01-28T18:35:04.489Z,99096.78
2019-01-28T18:37:31.723Z,99110.64
2019-01-28T18:39:58.931Z,99110.07
2019-01-28T18:42:26.058Z,99107.33
2019-01-28T18:44:53.593Z,99117.51
2019-01-28T18:47:20.890Z,99113.38
2019-01-28T18:49:48.065Z,99126.53
2019-01-28T18:52:15.347Z,99142.17
2019-01-28T18:54:42.709Z,99140.27
2019-01-28T18:57:09.909Z,99148.94
2019-01-28T18:59:37.119Z,99150.59
2019-01-28T19:02:04.317Z,99156.62
2019-01-28T19:04:31.834Z,99170.00
2019-01-28T19:07:31.547Z,99173.56
2019-01-28T19:10:25.290Z,99184.70
2019-01-28T19:13:06.440Z,99185.45
2019-01-28T19:16:02.417Z,99203.61
2019-01-28T19:18:34.932Z,99213.19
2019-01-28T19:21:08.188Z,99216.76
2019-01-28T19:23:35.381Z,99221.56
2019-01-28T19:26:02.628Z,99230.61
2019-01-28T19:28:29.867Z,99228.67
2019-01-28T19:30:57.379Z,99240.76
2019-01-28T19:33:24.623Z,99240.66
2019-01-28T19:35:51.986Z,99239.35
2019-01-28T19:38:19.425Z,99246.17
2019-01-28T19:40:46.929Z,99247.64
2019-01-28T19:43:14.133Z,99255.70
2019-01-28T19:45:41.336Z,99271.95
2019-01-28T19:48:08.491Z,99279.08
2019-01-28T19:50:35.605Z,99292.11
2019-01-28T19:53:02.910Z,99300.90
2019-01-28T19:55:29.974Z,99300.37
2019-01-28T19:58:00.387Z,99305.16
2019-01-28T20:00:29.285Z,99307.34
2019-01-28T20:02:58.452Z,99315.49
2019-01-28T20:05:25.652Z,99316.25
2019-01-28T20:07:52.861Z,99325.60
2019-01-28T20:10:20.026Z,99325.41
2019-01-28T20:12:47.248Z,99327.76
2019-01-28T20:15:15.634Z,99329.94
2019-01-28T20:17:42.682Z,99329.39
2019-01-28T20:20:11.608Z,99327.20
2019-01-28T20:22:38.823Z,99332.36
2019-01-28T20:25:07.368Z,99334.66
2019-01-28T20:27:34.870Z,99338.63
2019-01-28T20:30:03.312Z,99336.48
2019-01-28T20:32:30.651Z,99343.74
2019-01-28T20:34:57.850Z,99343.52
2019-01-28T20:37:25.065Z,99345.86
2019-01-28T20:39:52.290Z,99359.55
2019-01-28T20:42:19.540Z,99358.17
2019-01-28T20:44:46.827Z,99366.77
2019-01-28T20:47:14.002Z,99361.63
2019-01-28T20:49:41.293Z,99369.14
2019-01-28T20:52:08.485Z,99379.98
2019-01-28T20:54:35.678Z,99381.28
2019-01-28T20:57:03.023Z,99392.73
2019-01-28T20:59:30.759Z,99399.95
2019-01-28T21:01:57.933Z,99398.91
2019-01-28T21:04:25.128Z,99407.34
2019-01-28T21:06:52.344Z,99413.11
2019-01-28T21:09:19.598Z,99410.10
2019-01-28T21:11:46.777Z,99416.54
2019-01-28T21:14:14.165Z,99426.11
2019-01-28T21:16:41.377Z,99425.20
2019-01-28T21:19:08.453Z,99427.47
2019-01-28T21:21:41.780Z,99435.98
2019-01-28T21:24:04.717Z,99432.44
2019-01-28T21:26:31.954Z,99433.06
2019-01-28T21:28:59.517Z,99435.09
2019-01-28T21:31:26.695Z,99433.55
2019-01-28T21:33:53.858Z,99434.85
2019-01-28T21:36:31.872Z,99437.02
2019-01-28T21:38:59.094Z,99441.19
2019-01-28T21:41:26.320Z,99442.30
2019-01-28T21:43:53.578Z,99449.75
2019-01-28T21:46:21.278Z,99452.98
2019-01-28T21:48:48.648Z,99451.28
2019-01-28T21:51:15.890Z,99461.20
2019-01-28T21:53:43.037Z,99458.91
2019-01-28T21:56:10.359Z,99462.45
2019-01-28T21:58:37.592Z,99461.83
2019-01-28T22:01:05.940Z,99460.63
2019-01-28T22:03:33.115Z,99464.48
2019-01-28T22:06:00.254Z,99468.89
2019-01-28T22:08:27.428Z,99467.55
2019-01-28T22:10:56.226Z,99477.78
2019-01-28T22:13:23.641Z,99478.72
2019-01-28T22:15:50.906Z,99488.51
2019-01-28T22:18:17.995Z,99492.06
2019-01-28T22:20:45.177Z,99491.78
2019-01-28T22:23:12.369Z,99496.73
2019-01-28T22:25:39.540Z,99499.91
2019-01-28T22:28:07.046Z,99507.05
2019-01-28T22:30:34.232Z,99502.25
2019-01-28T22:33:01.399Z,99511.81
2019-01-28T22:35:28.495Z,99513.67
2019-01-28T22:37:55.745Z,99524.62
2019-01-28T22:40:22.897Z,99530.69
2019-01-28T22:42:50.154Z,99525.05
2019-01-28T22:45:17.502Z,99523.39
2019-01-28T22:47:44.797Z,99523.58
2019-01-28T22:50:13.683Z,99524.20
2019-01-28T22:52:40.782Z,99525.97
2019-01-28T22:55:09.007Z,99524.89
2019-01-28T22:57:36.339Z,99524.85
2019-01-28T23:00:12.416Z,99529.34
2019-01-28T23:02:39.791Z,99536.62
2019-01-28T23:05:07.060Z,99544.28
2019-01-28T23:07:34.246Z,99543.66
2019-01-28T23:10:01.485Z,99543.75
2019-01-28T23:12:28.778Z,99532.60
2019-01-28T23:14:56.011Z,99541.17
2019-01-28T23:17:23.221Z,99543.54
2019-01-28T23:19:50.408Z,99555.98
2019-01-28T23:22:17.635Z,99557.70
2019-01-28T23:24:44.816Z,99562.38
2019-01-28T23:27:12.035Z,99565.64
2019-01-28T23:29:39.152Z,99567.77
2019-01-28T23:32:06.362Z,99573.14
2019-01-28T23:34:33.433Z,99571.84
2019-01-28T23:37:00.616Z,99580.81
2019-01-28T23:39:27.824Z,99582.02
2019-01-28T23:41:54.990Z,99584.83
2019-01-28T23:44:22.175Z,99589.42
2019-01-28T23:46:49.383Z,99591.23
2019-01-28T23:49:16.635Z,99584.77
2019-01-28T23:51:43.871Z,99586.38
2019-01-28T23:54:10.958Z,99597.14
2019-01-28T23:56:38.111Z,99597.70
2019-01-28T23:59:05.303Z,99605.57
